Time;durP1;ratioP1;P1;durP2;ratioP2;P2;SDS_P1;SDS_P2;PMS_P1;PMS_P2;Temp;Humidity;BMP_temperature;BMP_pressure;BME280_temperature;BME280_humidity;BME280_pressure;Samples;Min_cycle;Max_cycle;Signal;HPM_P1;HPM_P2
2020/12/26 00:02:11;;;;;;;18.13;10.90;;;2.70;93.50;;;;;;4412297;32;20230;-67
2020/12/26 00:04:39;;;;;;;23.03;11.47;;;2.70;93.50;;;;;;4404661;32;20159;-65
2020/12/26 00:07:05;;;;;;;19.83;11.10;;;2.70;93.60;;;;;;4405080;32;20163;-66
2020/12/26 00:09:31;;;;;;;15.37;9.57;;;2.70;93.70;;;;;;4416069;32;20215;-66
2020/12/26 00:11:58;;;;;;;17.50;10.73;;;2.80;93.90;;;;;;4415597;32;20183;-65
2020/12/26 00:14:27;;;;;;;21.10;11.07;;;2.90;93.90;;;;;;4410490;32;20190;-68
2020/12/26 00:16:54;;;;;;;21.27;10.83;;;3.00;94.00;;;;;;4410978;32;20163;-67
2020/12/26 00:19:20;;;;;;;17.83;10.50;;;3.10;94.10;;;;;;4410596;32;20230;-66
2020/12/26 00:21:51;;;;;;;21.20;10.87;;;3.10;94.00;;;;;;4416128;32;20527;-65
2020/12/26 00:24:18;;;;;;;21.90;10.83;;;3.10;94.10;;;;;;4417961;32;20163;-68
2020/12/26 00:26:44;;;;;;;17.07;10.53;;;3.20;94.00;;;;;;4420696;32;20211;-65
2020/12/26 00:29:12;;;;;;;14.50;10.23;;;3.20;94.00;;;;;;4417798;32;20226;-68
2020/12/26 00:31:42;;;;;;;15.83;10.90;;;3.30;94.00;;;;;;4415530;32;20219;-68
2020/12/26 00:34:11;;;;;;;16.53;9.77;;;3.30;94.00;;;;;;4412388;32;20209;-67
2020/12/26 00:36:40;;;;;;;19.27;10.57;;;3.30;93.90;;;;;;4414846;32;20207;-69
2020/12/26 00:39:07;;;;;;;22.90;11.10;;;3.40;93.90;;;;;;4421326;32;20478;-65
2020/12/26 00:41:33;;;;;;;16.80;10.20;;;3.40;93.80;;;;;;4417139;32;20175;-67
2020/12/26 00:44:00;;;;;;;21.47;10.43;;;3.40;93.70;;;;;;4407140;32;20258;-68
2020/12/26 00:46:26;;;;;;;18.03;9.37;;;3.40;93.80;;;;;;4423060;32;20227;-66
2020/12/26 00:48:52;;;;;;;15.00;8.90;;;3.50;93.80;;;;;;4421953;32;20160;-66
2020/12/26 00:51:23;;;;;;;14.63;9.17;;;3.40;93.70;;;;;;4414561;32;20222;-66
2020/12/26 00:53:49;;;;;;;15.60;9.47;;;3.50;93.80;;;;;;4416467;32;20691;-64
2020/12/26 00:56:16;;;;;;;15.50;9.47;;;3.50;93.80;;;;;;4420238;32;20175;-66
2020/12/26 00:58:43;;;;;;;17.27;8.97;;;3.50;93.80;;;;;;4416282;32;20580;-67
2020/12/26 01:01:09;;;;;;;18.87;11.03;;;3.50;93.80;;;;;;4411705;32;20171;-68
2020/12/26 01:03:38;;;;;;;14.80;8.83;;;3.50;93.80;;;;;;4423046;32;20215;-65
2020/12/26 01:06:05;;;;;;;16.60;9.03;;;3.50;93.90;;;;;;4416800;32;20192;-65
2020/12/26 01:08:31;;;;;;;19.50;9.43;;;3.50;93.90;;;;;;4410565;32;20182;-67
2020/12/26 01:10:58;;;;;;;12.20;7.97;;;3.50;93.90;;;;;;4415898;32;20174;-65
2020/12/26 01:13:29;;;;;;;15.67;8.30;;;3.50;93.90;;;;;;4421382;32;20221;-66
2020/12/26 01:15:56;;;;;;;17.53;7.87;;;3.50;94.00;;;;;;4407460;32;20567;-64
2020/12/26 01:18:28;;;;;;;20.63;8.87;;;3.50;94.00;;;;;;4409641;32;20524;-65
2020/12/26 01:20:55;;;;;;;10.47;7.17;;;3.50;94.00;;;;;;4414522;32;20571;-67
2020/12/26 01:23:21;;;;;;;17.43;7.93;;;3.60;94.10;;;;;;4414394;32;20194;-69
2020/12/26 01:25:51;;;;;;;14.43;8.27;;;3.60;94.10;;;;;;4422675;32;20580;-65
2020/12/26 01:28:17;;;;;;;15.60;7.37;;;3.70;94.20;;;;;;4413448;32;20152;-66
2020/12/26 01:30:45;;;;;;;11.53;6.40;;;3.70;94.20;;;;;;4414430;32;20217;-63
2020/12/26 01:33:11;;;;;;;11.93;6.20;;;3.70;94.50;;;;;;4415159;32;20169;-67
2020/12/26 01:35:37;;;;;;;11.80;6.33;;;3.80;94.30;;;;;;4418167;32;20242;-65
2020/12/26 01:38:09;;;;;;;13.37;6.50;;;3.80;94.10;;;;;;4413796;32;20211;-66
2020/12/26 01:40:40;;;;;;;14.63;6.70;;;3.90;93.90;;;;;;4413818;32;20593;-66
2020/12/26 01:43:07;;;;;;;9.27;6.53;;;3.80;93.80;;;;;;4422446;32;20216;-69
2020/12/26 01:45:33;;;;;;;15.77;6.77;;;3.80;93.60;;;;;;4414184;32;20193;-66
2020/12/26 01:48:03;;;;;;;14.43;7.00;;;3.70;93.50;;;;;;4420712;32;20249;-65
2020/12/26 01:50:29;;;;;;;9.17;6.43;;;3.70;93.50;;;;;;4414342;32;20617;-67
2020/12/26 01:52:56;;;;;;;11.37;6.80;;;3.60;93.50;;;;;;4409653;32;20227;-67
2020/12/26 01:55:22;;;;;;;11.63;6.40;;;3.60;93.50;;;;;;4419367;32;20187;-68
2020/12/26 01:57:55;;;;;;;12.60;6.70;;;3.50;93.50;;;;;;4411798;32;20173;-67
2020/12/26 02:00:24;;;;;;;9.53;6.47;;;3.50;93.50;;;;;;4413627;32;20185;-69
2020/12/26 02:02:50;;;;;;;12.00;7.00;;;3.50;93.50;;;;;;4417544;32;20181;-64
2020/12/26 02:05:18;;;;;;;13.50;7.13;;;3.40;93.50;;;;;;4419534;32;20153;-66
2020/12/26 02:07:46;;;;;;;12.67;7.27;;;3.40;93.80;;;;;;4408827;32;20691;-66
2020/12/26 02:10:13;;;;;;;13.63;6.80;;;3.40;93.50;;;;;;4414062;32;20181;-64
2020/12/26 02:12:42;;;;;;;14.27;7.70;;;3.40;93.50;;;;;;4407769;32;20203;-66
2020/12/26 02:15:12;;;;;;;10.97;6.83;;;3.40;93.60;;;;;;4409222;32;20226;-65
2020/12/26 02:17:41;;;;;;;9.23;6.83;;;3.40;93.60;;;;;;4415060;32;20140;-67
2020/12/26 02:20:07;;;;;;;11.90;7.03;;;3.40;93.60;;;;;;4412572;32;20266;-69
2020/12/26 02:22:39;;;;;;;12.13;6.60;;;3.40;93.60;;;;;;4413586;32;20160;-69
2020/12/26 02:25:06;;;;;;;12.90;7.03;;;3.40;93.70;;;;;;4420275;32;20260;-68
2020/12/26 02:27:33;;;;;;;12.67;6.97;;;3.40;93.70;;;;;;4420871;32;20232;-68
2020/12/26 02:30:01;;;;;;;10.70;6.07;;;3.40;93.70;;;;;;4418500;32;20171;-64
2020/12/26 02:32:34;;;;;;;13.77;6.40;;;3.40;93.70;;;;;;4419358;32;20175;-66
2020/12/26 02:35:03;;;;;;;8.20;5.67;;;3.40;93.60;;;;;;4417429;32;20475;-65
2020/12/26 02:37:30;;;;;;;10.47;5.90;;;3.30;93.60;;;;;;4405251;32;20213;-66
2020/12/26 02:39:56;;;;;;;9.23;5.30;;;3.30;93.50;;;;;;4408804;32;20229;-64
2020/12/26 02:42:23;;;;;;;12.60;5.23;;;3.30;93.50;;;;;;4409288;32;20222;-66
2020/12/26 02:44:53;;;;;;;8.00;4.50;;;3.30;93.50;;;;;;4411023;32;20207;-68
2020/12/26 02:47:22;;;;;;;6.83;4.03;;;3.20;93.40;;;;;;4417258;32;20183;-67
2020/12/26 02:49:49;;;;;;;8.87;4.20;;;3.20;93.50;;;;;;4413028;32;20316;-67
2020/12/26 02:52:15;;;;;;;8.27;4.37;;;3.20;93.60;;;;;;4417336;32;20688;-68
2020/12/26 02:54:41;;;;;;;9.33;5.17;;;3.20;93.60;;;;;;4409427;32;20220;-69
2020/12/26 02:57:10;;;;;;;5.53;4.20;;;3.20;93.60;;;;;;4419438;32;20500;-67
2020/12/26 02:59:37;;;;;;;7.20;4.60;;;3.20;93.50;;;;;;4411576;32;20171;-64
2020/12/26 03:02:04;;;;;;;12.37;5.03;;;3.20;93.50;;;;;;4420360;32;20196;-64
2020/12/26 03:04:30;;;;;;;6.43;4.27;;;3.20;93.50;;;;;;4419679;32;20266;-65
2020/12/26 03:07:05;;;;;;;6.97;3.90;;;3.10;93.50;;;;;;4414530;32;20179;-65
2020/12/26 03:09:32;;;;;;;9.93;4.67;;;3.10;93.40;;;;;;4417076;32;20204;-65
2020/12/26 03:12:00;;;;;;;8.07;4.67;;;3.00;93.30;;;;;;4405793;32;20166;-64
2020/12/26 03:14:29;;;;;;;12.00;5.97;;;2.90;93.20;;;;;;4406164;32;20178;-69
2020/12/26 03:17:02;;;;;;;11.57;4.97;;;2.90;93.30;;;;;;4414408;32;20170;-69
2020/12/26 03:19:28;;;;;;;7.77;5.50;;;2.80;93.40;;;;;;4419496;32;20147;-66
2020/12/26 03:21:54;;;;;;;9.87;6.30;;;2.80;93.40;;;;;;4413991;32;20172;-67
2020/12/26 03:24:21;;;;;;;15.17;6.87;;;2.70;93.40;;;;;;4420033;32;20219;-64
2020/12/26 03:26:47;;;;;;;11.60;7.20;;;2.70;93.50;;;;;;4418225;32;20210;-65
2020/12/26 03:29:13;;;;;;;11.27;6.93;;;2.70;93.50;;;;;;4415480;32;20210;-67
2020/12/26 03:31:39;;;;;;;14.57;9.47;;;2.60;93.50;;;;;;4409792;32;20179;-64
2020/12/26 03:34:09;;;;;;;11.77;8.33;;;2.70;93.60;;;;;;4419929;32;20178;-65
2020/12/26 03:36:36;;;;;;;17.13;9.23;;;2.70;93.60;;;;;;4415423;32;20152;-64
2020/12/26 03:39:05;;;;;;;16.80;9.50;;;2.70;93.50;;;;;;4405452;32;20222;-64
2020/12/26 03:41:34;;;;;;;13.40;9.13;;;2.70;93.60;;;;;;4415901;32;20152;-66
2020/12/26 03:44:03;;;;;;;13.37;8.60;;;2.70;93.60;;;;;;4418907;32;20646;-65
2020/12/26 03:46:30;;;;;;;16.27;9.73;;;2.60;93.60;;;;;;4418751;32;20277;-67
2020/12/26 03:49:00;;;;;;;14.07;9.33;;;2.60;93.70;;;;;;4413729;32;20178;-66
2020/12/26 03:51:29;;;;;;;11.53;8.37;;;2.60;93.60;;;;;;4412552;32;20522;-68
2020/12/26 03:53:55;;;;;;;13.17;7.73;;;2.60;93.60;;;;;;4406442;32;20170;-63
2020/12/26 03:56:21;;;;;;;11.83;7.60;;;2.60;93.60;;;;;;4404350;32;20171;-67
2020/12/26 03:58:48;;;;;;;12.93;7.90;;;2.60;93.50;;;;;;4406973;32;20187;-67
2020/12/26 04:01:14;;;;;;;12.57;6.83;;;2.50;93.50;;;;;;4410541;32;20533;-67
2020/12/26 04:03:41;;;;;;;10.33;6.27;;;2.50;93.50;;;;;;4404769;32;20219;-64
2020/12/26 04:06:08;;;;;;;9.50;6.13;;;2.50;93.60;;;;;;4406693;32;20160;-67
2020/12/26 04:08:35;;;;;;;10.10;5.63;;;2.50;93.80;;;;;;4406262;32;20303;-68
2020/12/26 04:11:01;;;;;;;10.30;5.80;;;2.50;93.80;;;;;;4406419;32;20523;-66
2020/12/26 04:13:28;;;;;;;8.13;4.97;;;2.50;94.00;;;;;;4410137;32;20163;-67
2020/12/26 04:15:54;;;;;;;7.40;4.83;;;2.60;94.40;;;;;;4421439;32;20571;-65
2020/12/26 04:18:22;;;;;;;11.20;5.20;;;2.80;94.60;;;;;;4413489;32;20263;-65
2020/12/26 04:20:50;;;;;;;8.77;3.97;;;3.00;94.80;;;;;;4419773;32;20223;-66
2020/12/26 04:23:16;;;;;;;6.20;4.10;;;3.00;94.70;;;;;;4416096;32;20583;-64
2020/12/26 04:25:45;;;;;;;11.53;3.43;;;3.10;94.60;;;;;;4412889;32;20164;-66
2020/12/26 04:28:11;;;;;;;10.50;4.73;;;3.10;94.60;;;;;;4419771;32;20156;-68
2020/12/26 04:30:40;;;;;;;6.80;2.77;;;3.10;94.50;;;;;;4414663;32;20217;-67
2020/12/26 04:33:06;;;;;;;8.53;3.20;;;3.10;94.20;;;;;;4419788;32;20619;-67
2020/12/26 04:35:33;;;;;;;11.13;3.00;;;3.00;94.00;;;;;;4412295;32;20219;-68
2020/12/26 04:37:59;;;;;;;9.60;3.10;;;3.00;94.00;;;;;;4404557;32;20215;-67
2020/12/26 04:40:29;;;;;;;6.87;2.97;;;3.00;93.90;;;;;;4407784;32;20272;-68
2020/12/26 04:43:01;;;;;;;6.03;2.80;;;3.00;93.80;;;;;;4420138;32;20250;-67
2020/12/26 04:45:27;;;;;;;5.20;2.50;;;3.00;93.70;;;;;;4417319;32;20226;-67
2020/12/26 04:47:59;;;;;;;9.13;2.33;;;3.00;93.90;;;;;;4419160;32;20602;-65
2020/12/26 04:50:27;;;;;;;4.90;2.47;;;3.00;93.90;;;;;;4415338;32;20147;-67
2020/12/26 04:53:01;;;;;;;13.47;2.87;;;3.00;93.90;;;;;;4406382;32;20200;-65
2020/12/26 04:55:30;;;;;;;8.60;2.30;;;3.00;93.90;;;;;;4411374;32;20155;-66
2020/12/26 04:58:08;;;;;;;7.93;2.60;;;3.10;94.10;;;;;;4418918;32;20567;-65
2020/12/26 05:00:49;;;;;;;5.60;1.77;;;3.10;94.10;;;;;;4420340;32;20666;-66
2020/12/26 05:03:20;;;;;;;6.33;1.90;;;3.20;94.20;;;;;;4407279;32;20200;-68
2020/12/26 05:05:50;;;;;;;4.77;1.67;;;3.30;94.40;;;;;;4412940;32;20222;-65
2020/12/26 05:08:16;;;;;;;8.00;1.87;;;3.30;94.00;;;;;;4418875;32;20160;-65
2020/12/26 05:10:43;;;;;;;8.27;2.60;;;3.30;93.90;;;;;;4412780;32;20219;-67
2020/12/26 05:13:14;;;;;;;4.23;2.37;;;3.40;93.90;;;;;;4421358;32;20163;-67
2020/12/26 05:15:40;;;;;;;8.43;2.40;;;3.30;93.80;;;;;;4413571;32;20199;-66
2020/12/26 05:18:11;;;;;;;6.27;2.57;;;3.40;93.80;;;;;;4412604;32;20182;-68
2020/12/26 05:20:40;;;;;;;7.30;2.83;;;3.30;93.80;;;;;;4420585;32;20197;-65
2020/12/26 05:23:12;;;;;;;3.17;2.20;;;3.40;93.70;;;;;;4421576;32;20156;-67
2020/12/26 05:25:43;;;;;;;4.43;2.30;;;3.50;93.60;;;;;;4418814;32;20191;-67
2020/12/26 05:28:12;;;;;;;8.70;2.37;;;3.50;93.60;;;;;;4410646;32;20153;-66
2020/12/26 05:30:40;;;;;;;7.43;2.53;;;3.50;93.70;;;;;;4419740;32;20181;-66
2020/12/26 05:33:07;;;;;;;5.70;2.50;;;3.50;93.60;;;;;;4421550;32;20545;-64
2020/12/26 05:35:42;;;;;;;7.47;2.70;;;3.60;93.50;;;;;;4421636;32;20292;-63
2020/12/26 05:38:18;;;;;;;6.27;2.90;;;3.50;93.50;;;;;;4413220;32;20169;-64
2020/12/26 05:40:47;;;;;;;5.83;2.47;;;3.60;93.40;;;;;;4420079;32;20222;-68
2020/12/26 05:43:17;;;;;;;6.33;2.13;;;3.60;93.30;;;;;;4406927;32;20154;-67
2020/12/26 05:45:45;;;;;;;9.63;2.70;;;3.60;93.20;;;;;;4415285;32;20180;-67
2020/12/26 05:48:13;;;;;;;2.80;2.07;;;3.60;93.10;;;;;;4422988;32;20214;-67
2020/12/26 05:50:40;;;;;;;4.00;2.23;;;3.60;93.00;;;;;;4418972;32;20623;-66
2020/12/26 05:53:08;;;;;;;5.93;2.53;;;3.80;92.80;;;;;;4411756;32;20211;-68
2020/12/26 05:55:38;;;;;;;10.73;2.27;;;3.70;92.70;;;;;;4417074;32;20151;-67
2020/12/26 05:58:10;;;;;;;6.23;2.17;;;3.80;92.40;;;;;;4405570;32;20177;-69
2020/12/26 06:00:38;;;;;;;4.27;1.90;;;3.80;92.10;;;;;;4411163;32;20179;-64
2020/12/26 06:03:24;;;;;;;3.60;1.63;;;3.70;91.90;;;;;;4416423;32;20634;-68
2020/12/26 06:05:52;;;;;;;6.10;1.87;;;3.70;91.90;;;;;;4419086;32;20205;-66
2020/12/26 06:08:23;;;;;;;4.97;1.87;;;3.60;91.80;;;;;;4421486;32;20565;-64
2020/12/26 06:10:52;;;;;;;6.43;2.00;;;3.60;91.60;;;;;;4419722;32;20335;-66
2020/12/26 06:13:19;;;;;;;5.93;1.70;;;3.50;91.80;;;;;;4405779;32;20156;-65
2020/12/26 06:15:51;;;;;;;5.17;2.00;;;3.50;92.10;;;;;;4416481;32;20171;-66
2020/12/26 06:18:20;;;;;;;12.57;2.50;;;3.60;92.20;;;;;;4410495;32;20630;-68
2020/12/26 06:20:48;;;;;;;5.47;2.10;;;3.70;92.10;;;;;;4406264;32;20244;-69
2020/12/26 06:23:20;;;;;;;8.80;2.97;;;3.70;91.90;;;;;;4405914;32;20151;-66
2020/12/26 06:25:55;;;;;;;5.13;1.60;;;3.70;91.80;;;;;;4420454;32;20190;-68
2020/12/26 06:28:27;;;;;;;8.70;2.07;;;3.80;91.70;;;;;;4406817;32;20139;-64
2020/12/26 06:31:04;;;;;;;7.30;2.30;;;3.70;91.70;;;;;;4409111;32;20709;-68
2020/12/26 06:33:38;;;;;;;4.17;1.97;;;3.70;91.70;;;;;;4415410;32;20155;-63
2020/12/26 06:36:08;;;;;;;4.73;2.30;;;3.80;91.70;;;;;;4404984;32;20190;-64
2020/12/26 06:38:35;;;;;;;4.73;2.40;;;3.80;91.60;;;;;;4411524;32;20222;-63
2020/12/26 06:41:03;;;;;;;5.77;2.13;;;3.80;91.50;;;;;;4419139;32;20200;-63
2020/12/26 06:43:47;;;;;;;6.67;1.87;;;3.80;91.30;;;;;;4411488;32;20170;-64
2020/12/26 06:46:41;;;;;;;6.63;2.30;;;3.70;91.40;;;;;;4419659;32;20492;-67
2020/12/26 06:49:24;;;;;;;7.93;2.10;;;3.80;91.50;;;;;;4419151;32;20174;-66
2020/12/26 06:51:50;;;;;;;9.20;2.70;;;3.80;91.50;;;;;;4417955;32;20171;-64
2020/12/26 06:54:39;;;;;;;6.90;2.50;;;3.70;91.60;;;;;;4421426;32;20583;-65
2020/12/26 06:57:05;;;;;;;6.00;2.93;;;3.70;91.60;;;;;;4415927;32;20164;-64
2020/12/26 06:59:36;;;;;;;6.37;2.70;;;3.70;91.70;;;;;;4411751;32;20277;-68
2020/12/26 07:02:09;;;;;;;4.03;2.93;;;3.70;91.80;;;;;;4407615;32;20258;-64
2020/12/26 07:04:49;;;;;;;7.77;3.77;;;3.70;91.80;;;;;;4412342;32;20223;-64
2020/12/26 07:07:38;;;;;;;7.53;3.63;;;3.70;91.90;;;;;;4409282;32;20274;-64
2020/12/26 07:10:04;;;;;;;10.87;3.63;;;3.70;91.80;;;;;;4418712;32;20151;-66
2020/12/26 07:12:42;;;;;;;9.10;3.73;;;3.80;91.90;;;;;;4414923;32;20254;-64
2020/12/26 07:15:10;;;;;;;10.97;3.33;;;3.80;91.80;;;;;;4407357;32;20174;-69
2020/12/26 07:17:42;;;;;;;7.30;4.00;;;3.80;91.80;;;;;;4406966;32;20148;-66
2020/12/26 07:20:08;;;;;;;13.33;4.57;;;3.80;91.90;;;;;;4419290;32;20186;-64
2020/12/26 07:22:41;;;;;;;8.90;3.70;;;3.80;91.90;;;;;;4414578;32;20182;-64
2020/12/26 07:25:10;;;;;;;12.80;4.53;;;3.80;92.00;;;;;;4413766;32;20162;-63
2020/12/26 07:27:38;;;;;;;7.77;3.90;;;3.90;91.80;;;;;;4408978;32;20168;-64
2020/12/26 07:30:12;;;;;;;6.53;3.60;;;3.90;91.90;;;;;;4413802;32;20147;-66
2020/12/26 07:32:47;;;;;;;8.20;3.80;;;4.00;91.70;;;;;;4418904;32;20582;-63
2020/12/26 07:35:47;;;;;;;11.40;4.93;;;4.00;91.80;;;;;;4413232;32;20314;-65
2020/12/26 07:38:16;;;;;;;10.37;4.40;;;3.90;91.70;;;;;;4357665;32;20188;-64
2020/12/26 07:40:45;;;;;;;12.93;4.40;;;3.90;92.10;;;;;;4358552;32;20201;-64
2020/12/26 07:43:14;;;;;;;9.20;5.13;;;3.90;91.90;;;;;;4355864;32;20172;-64
2020/12/26 07:45:42;;;;;;;11.60;5.07;;;3.90;91.90;;;;;;4359656;32;20196;-65
2020/12/26 07:48:12;;;;;;;10.03;5.10;;;3.90;91.80;;;;;;4359072;32;20203;-68
2020/12/26 07:50:43;;;;;;;10.33;5.57;;;3.90;91.80;;;;;;4361701;32;20226;-66
2020/12/26 07:53:17;;;;;;;13.30;6.00;;;3.90;91.80;;;;;;4361441;32;20309;-64
2020/12/26 07:55:54;;;;;;;11.77;6.50;;;3.80;91.70;;;;;;4357499;32;20176;-66
2020/12/26 07:58:22;;;;;;;10.77;6.47;;;3.70;91.80;;;;;;4362849;32;20232;-65
2020/12/26 08:00:49;;;;;;;14.97;7.17;;;3.60;92.00;;;;;;4363698;32;20184;-65
2020/12/26 08:03:19;;;;;;;15.20;7.43;;;3.60;92.30;;;;;;4359769;32;20639;-67
2020/12/26 08:05:51;;;;;;;14.17;8.70;;;3.60;92.70;;;;;;4354360;32;20214;-65
2020/12/26 08:08:27;;;;;;;13.63;8.23;;;3.80;92.70;;;;;;4355445;32;20227;-65
2020/12/26 08:10:57;;;;;;;14.87;7.33;;;3.90;92.50;;;;;;4361750;32;20588;-68
2020/12/26 08:13:24;;;;;;;15.50;9.53;;;4.00;92.30;;;;;;4360264;32;20172;-65
2020/12/26 08:16:02;;;;;;;13.43;8.80;;;4.00;92.00;;;;;;4397027;32;20231;-65
2020/12/26 08:18:32;;;;;;;13.20;9.33;;;4.10;91.90;;;;;;4416646;32;20146;-66
2020/12/26 08:21:00;;;;;;;14.67;9.37;;;4.00;91.90;;;;;;4417988;32;20167;-68
2020/12/26 08:23:27;;;;;;;17.90;10.30;;;4.00;92.00;;;;;;4417722;32;20153;-65
2020/12/26 08:26:00;;;;;;;18.20;9.43;;;4.00;92.00;;;;;;4417094;32;20509;-66
2020/12/26 08:28:27;;;;;;;21.07;8.63;;;4.10;92.00;;;;;;4414923;32;20198;-68
2020/12/26 08:30:55;;;;;;;15.20;9.37;;;4.10;91.80;;;;;;4415744;32;20185;-66
2020/12/26 08:33:29;;;;;;;15.83;10.57;;;4.10;91.90;;;;;;4415820;32;20268;-71
2020/12/26 08:36:04;;;;;;;17.70;9.90;;;4.10;92.00;;;;;;4419095;32;20155;-65
2020/12/26 08:38:38;;;;;;;13.93;9.27;;;4.10;92.00;;;;;;4419428;32;20264;-64
2020/12/26 08:41:11;;;;;;;14.87;9.90;;;4.10;91.80;;;;;;4419848;32;20509;-65
2020/12/26 08:43:38;;;;;;;15.03;9.00;;;4.10;91.90;;;;;;4421783;32;20183;-65
2020/12/26 08:46:13;;;;;;;16.20;10.07;;;4.20;91.80;;;;;;4420789;32;20258;-66
2020/12/26 08:48:43;;;;;;;17.80;9.80;;;4.20;91.80;;;;;;4418592;32;20216;-68
2020/12/26 08:51:27;;;;;;;14.43;8.37;;;4.20;91.80;;;;;;4419228;32;20591;-66
2020/12/26 08:53:57;;;;;;;12.60;9.37;;;4.20;91.60;;;;;;4419878;32;20450;-67
2020/12/26 08:56:36;;;;;;;15.27;9.23;;;4.10;91.50;;;;;;4419073;32;20272;-65
2020/12/26 08:59:05;;;;;;;12.33;8.47;;;4.10;91.50;;;;;;4418449;32;20205;-66
2020/12/26 09:01:40;;;;;;;14.93;8.90;;;4.20;91.70;;;;;;4416305;32;20206;-66
2020/12/26 09:04:30;;;;;;;13.07;8.63;;;4.30;91.60;;;;;;4413982;32;20233;-66
2020/12/26 09:06:59;;;;;;;12.90;8.33;;;4.30;91.50;;;;;;4416897;32;20201;-67
2020/12/26 09:09:32;;;;;;;15.63;7.67;;;4.30;91.40;;;;;;4420407;32;20156;-66
2020/12/26 09:12:07;;;;;;;15.73;8.80;;;4.40;91.20;;;;;;4417619;32;20597;-65
2020/12/26 09:14:37;;;;;;;11.93;7.77;;;4.40;91.10;;;;;;4420221;32;20213;-66
2020/12/26 09:17:08;;;;;;;13.30;8.60;;;4.40;91.00;;;;;;4418010;32;20156;-69
2020/12/26 09:19:48;;;;;;;12.83;7.40;;;4.50;91.00;;;;;;4420370;32;20618;-67
2020/12/26 09:22:29;;;;;;;11.17;7.67;;;4.40;90.70;;;;;;4418325;32;20274;-65
2020/12/26 09:25:01;;;;;;;19.33;9.60;;;4.40;90.90;;;;;;4419122;32;20210;-66
2020/12/26 09:27:29;;;;;;;17.23;9.50;;;4.50;90.80;;;;;;4421664;32;20158;-67
2020/12/26 09:30:05;;;;;;;17.47;9.70;;;4.50;90.60;;;;;;4419844;32;20140;-66
2020/12/26 09:32:31;;;;;;;11.63;7.63;;;4.50;90.80;;;;;;4420384;32;20607;-65
2020/12/26 09:35:00;;;;;;;13.37;7.60;;;4.60;90.60;;;;;;4418782;32;20150;-68
2020/12/26 09:37:26;;;;;;;17.57;8.30;;;4.60;90.40;;;;;;4417101;32;20501;-67
2020/12/26 09:39:52;;;;;;;16.13;7.90;;;4.60;90.00;;;;;;4417093;32;20222;-65
2020/12/26 09:42:26;;;;;;;18.43;7.73;;;4.50;90.20;;;;;;4416301;32;20162;-66
2020/12/26 09:45:12;;;;;;;15.87;7.93;;;4.50;90.40;;;;;;4413672;32;20215;-66
2020/12/26 09:47:38;;;;;;;12.90;7.20;;;4.50;90.50;;;;;;4413963;32;20228;-67
2020/12/26 09:50:07;;;;;;;13.37;7.23;;;4.60;90.50;;;;;;4417933;32;20522;-66
2020/12/26 09:52:42;;;;;;;9.57;6.60;;;4.50;90.40;;;;;;4418561;32;20148;-66
2020/12/26 09:55:10;;;;;;;10.67;5.77;;;4.60;90.40;;;;;;4417229;32;20277;-65
2020/12/26 09:57:37;;;;;;;11.77;6.33;;;4.60;90.40;;;;;;4414632;32;20181;-65
2020/12/26 10:00:20;;;;;;;9.63;6.57;;;4.50;90.30;;;;;;4411169;32;20178;-66
2020/12/26 10:02:47;;;;;;;10.87;5.37;;;4.60;90.30;;;;;;4416852;32;20210;-66
2020/12/26 10:05:22;;;;;;;10.43;6.07;;;4.60;90.20;;;;;;4418783;32;20222;-68
2020/12/26 10:07:56;;;;;;;11.17;4.97;;;4.70;90.20;;;;;;4417430;32;20173;-64
2020/12/26 10:10:23;;;;;;;9.07;4.93;;;4.70;90.00;;;;;;4413639;32;20182;-69
2020/12/26 10:12:56;;;;;;;11.80;5.77;;;4.70;90.10;;;;;;4420837;32;20201;-67
2020/12/26 10:15:22;;;;;;;13.47;5.90;;;4.80;90.00;;;;;;4398148;32;20623;-66
2020/12/26 10:17:54;;;;;;;6.77;4.33;;;4.80;89.70;;;;;;4346919;32;20157;-66
2020/12/26 10:20:21;;;;;;;7.37;4.70;;;4.90;89.50;;;;;;4346634;32;20157;-67
2020/12/26 10:22:49;;;;;;;13.50;4.80;;;5.00;89.20;;;;;;4355801;32;20175;-67
2020/12/26 10:25:25;;;;;;;10.60;4.70;;;5.00;88.80;;;;;;4346703;32;20213;-67
2020/12/26 10:27:56;;;;;;;8.90;4.80;;;5.10;88.70;;;;;;4339923;32;20233;-67
2020/12/26 10:30:24;;;;;;;11.10;5.93;;;5.00;88.40;;;;;;4338669;32;20230;-66
2020/12/26 10:33:03;;;;;;;10.10;5.07;;;5.00;88.90;;;;;;4346850;32;20244;-66
2020/12/26 10:35:32;;;;;;;9.93;5.27;;;5.10;88.80;;;;;;4339833;33;20231;-67
2020/12/26 10:38:04;;;;;;;9.40;4.90;;;5.10;88.60;;;;;;4340519;33;20608;-66
2020/12/26 10:40:30;;;;;;;10.13;4.67;;;5.10;87.60;;;;;;4342702;33;20192;-66
2020/12/26 10:43:01;;;;;;;9.67;5.10;;;5.10;87.80;;;;;;4340471;33;21785;-66
2020/12/26 10:45:33;;;;;;;11.30;5.83;;;5.20;87.40;;;;;;4338213;33;20225;-66
2020/12/26 10:48:06;;;;;;;8.20;4.93;;;5.30;87.60;;;;;;4336486;33;20176;-65
2020/12/26 10:50:37;;;;;;;8.77;5.60;;;5.40;87.20;;;;;;4340703;32;20608;-69
2020/12/26 10:53:09;;;;;;;8.30;5.13;;;5.40;86.70;;;;;;4339968;33;20216;-66
2020/12/26 10:55:39;;;;;;;7.90;4.93;;;5.40;87.40;;;;;;4343954;32;20153;-66
2020/12/26 10:58:05;;;;;;;9.27;5.23;;;5.50;86.40;;;;;;4338613;33;20499;-65
2020/12/26 11:00:33;;;;;;;13.27;5.10;;;5.60;86.50;;;;;;4337947;32;20268;-69
2020/12/26 11:03:00;;;;;;;7.77;4.97;;;5.50;86.40;;;;;;4342376;33;20187;-70
2020/12/26 11:05:26;;;;;;;9.20;5.27;;;5.50;86.40;;;;;;4339982;32;20187;-67
2020/12/26 11:07:56;;;;;;;11.63;5.03;;;5.40;87.10;;;;;;4359121;32;20214;-66
2020/12/26 11:10:28;;;;;;;11.60;4.63;;;5.40;87.20;;;;;;4350033;32;20153;-67
2020/12/26 11:12:57;;;;;;;11.00;4.43;;;5.30;86.70;;;;;;4350014;33;20499;-68
2020/12/26 11:15:24;;;;;;;18.03;4.73;;;5.20;86.80;;;;;;4357659;32;20185;-67
2020/12/26 11:17:50;;;;;;;6.93;3.87;;;5.20;87.30;;;;;;4429264;32;20196;-67
2020/12/26 11:20:33;;;;;;;13.27;4.53;;;5.20;87.60;;;;;;4405553;32;20174;-68
2020/12/26 11:23:00;;;;;;;5.50;4.27;;;5.20;87.30;;;;;;4407615;32;20195;-67
2020/12/26 11:25:32;;;;;;;10.27;4.23;;;5.30;87.20;;;;;;4415571;32;20226;-67
2020/12/26 11:28:06;;;;;;;8.30;4.17;;;5.30;87.10;;;;;;4413810;32;20194;-69
2020/12/26 11:30:37;;;;;;;10.53;4.83;;;5.40;87.10;;;;;;4405288;32;20571;-66
2020/12/26 11:33:15;;;;;;;6.90;3.70;;;5.40;86.70;;;;;;4415615;32;20578;-66
2020/12/26 11:35:54;;;;;;;7.97;4.53;;;5.40;86.70;;;;;;4414648;32;20229;-66
2020/12/26 11:38:31;;;;;;;7.23;3.60;;;5.40;86.30;;;;;;4410841;32;20174;-71
2020/12/26 11:41:10;;;;;;;9.83;4.60;;;5.40;86.40;;;;;;4412514;32;20163;-66
2020/12/26 11:43:37;;;;;;;6.10;4.20;;;5.40;86.70;;;;;;4414689;32;20214;-68
2020/12/26 11:46:07;;;;;;;7.17;4.07;;;5.30;86.70;;;;;;4419078;32;20156;-68
2020/12/26 11:48:44;;;;;;;10.67;4.30;;;5.30;87.00;;;;;;4415802;32;20219;-67
2020/12/26 11:51:22;;;;;;;8.10;4.30;;;5.30;87.30;;;;;;4419036;32;20171;-67
2020/12/26 11:54:02;;;;;;;7.93;4.30;;;5.50;87.20;;;;;;4408341;32;20525;-69
2020/12/26 11:56:42;;;;;;;6.97;4.03;;;5.50;86.70;;;;;;4406493;32;20242;-67
2020/12/26 11:59:19;;;;;;;10.50;3.43;;;5.60;86.50;;;;;;4414332;32;20206;-67
2020/12/26 12:01:58;;;;;;;10.17;4.50;;;5.70;86.00;;;;;;4417424;32;20218;-65
2020/12/26 12:04:34;;;;;;;5.60;3.63;;;5.70;86.00;;;;;;4404785;32;20624;-67
2020/12/26 12:07:09;;;;;;;9.00;3.50;;;5.80;86.00;;;;;;4402826;32;20169;-67
2020/12/26 12:09:40;;;;;;;8.50;4.10;;;5.90;85.30;;;;;;4413698;32;20172;-66
2020/12/26 12:12:14;;;;;;;7.47;4.50;;;6.00;84.70;;;;;;4404841;32;20151;-67
2020/12/26 12:14:43;;;;;;;5.47;4.20;;;6.00;84.70;;;;;;4421921;32;20170;-66
2020/12/26 12:17:22;;;;;;;10.03;4.50;;;6.00;84.90;;;;;;4420240;32;20241;-67
2020/12/26 12:19:58;;;;;;;11.77;4.70;;;6.10;84.90;;;;;;4419194;32;20177;-66
2020/12/26 12:22:27;;;;;;;6.87;4.33;;;6.00;83.90;;;;;;4422863;32;20194;-68
2020/12/26 12:24:57;;;;;;;10.00;4.37;;;6.10;84.00;;;;;;4421048;32;20587;-69
2020/12/26 12:27:23;;;;;;;8.90;3.60;;;6.10;84.40;;;;;;4422468;32;20218;-67
2020/12/26 12:30:07;;;;;;;6.47;3.83;;;6.20;84.30;;;;;;4425434;32;20210;-67
2020/12/26 12:32:53;;;;;;;10.00;4.90;;;6.20;84.20;;;;;;4425633;32;20206;-66
2020/12/26 12:35:28;;;;;;;8.40;4.23;;;6.20;84.30;;;;;;4420805;32;20151;-67
2020/12/26 12:37:54;;;;;;;8.20;3.90;;;6.10;83.70;;;;;;4416117;32;20639;-68
2020/12/26 12:40:29;;;;;;;8.90;4.57;;;6.00;84.00;;;;;;4420868;32;20285;-67
2020/12/26 12:43:00;;;;;;;10.53;4.47;;;6.00;84.50;;;;;;4419857;32;20139;-66
2020/12/26 12:45:30;;;;;;;9.47;4.60;;;5.90;85.00;;;;;;4420986;32;20210;-66
2020/12/26 12:47:57;;;;;;;6.67;4.47;;;5.90;84.80;;;;;;4420458;32;20475;-68
2020/12/26 12:50:23;;;;;;;8.20;5.13;;;5.80;85.40;;;;;;4420372;32;20604;-66
2020/12/26 12:52:51;;;;;;;14.13;5.40;;;5.80;86.00;;;;;;4417847;32;20207;-68
2020/12/26 12:55:19;;;;;;;11.83;6.53;;;5.80;86.00;;;;;;4408703;32;20139;-67
2020/12/26 12:57:46;;;;;;;12.00;8.10;;;5.80;86.40;;;;;;4410671;32;20156;-66
2020/12/26 13:00:15;;;;;;;12.37;7.33;;;5.70;86.50;;;;;;4411756;32;20160;-67
2020/12/26 13:02:44;;;;;;;10.30;5.03;;;5.70;86.10;;;;;;4412554;32;20255;-67
2020/12/26 13:05:33;;;;;;;14.93;6.37;;;5.70;86.50;;;;;;4411226;32;20238;-66
2020/12/26 13:08:13;;;;;;;10.00;5.60;;;5.70;86.70;;;;;;4411553;32;20588;-68